sensor_id;sensor_type;location;lat;lon;timestamp;P1;durP1;ratioP1;P2;durP2;ratioP2
61756;SDS011;57225;61.460;24.060;2023-02-01T00:02:36;11.90;;;4.13;;
61756;SDS011;57225;61.460;24.060;2023-02-01T00:05:24;11.93;;;3.97;;
61756;SDS011;57225;61.460;24.060;2023-02-01T00:08:08;11.80;;;3.30;;
61756;SDS011;57225;61.460;24.060;2023-02-01T00:10:59;11.15;;;3.70;;
61756;SDS011;57225;61.460;24.060;2023-02-01T00:13:45;11.80;;;4.45;;
61756;SDS011;57225;61.460;24.060;2023-02-01T00:16:30;13.82;;;3.75;;
61756;SDS011;57225;61.460;24.060;2023-02-01T00:19:15;13.27;;;4.72;;
61756;SDS011;57225;61.460;24.060;2023-02-01T00:21:59;13.18;;;3.58;;
61756;SDS011;57225;61.460;24.060;2023-02-01T00:24:45;13.32;;;3.72;;
61756;SDS011;57225;61.460;24.060;2023-02-01T00:27:30;10.82;;;3.72;;
61756;SDS011;57225;61.460;24.060;2023-02-01T00:30:14;9.77;;;3.75;;
61756;SDS011;57225;61.460;24.060;2023-02-01T00:32:59;9.80;;;4.10;;
61756;SDS011;57225;61.460;24.060;2023-02-01T00:35:43;11.73;;;4.32;;
61756;SDS011;57225;61.460;24.060;2023-02-01T00:38:28;18.35;;;4.25;;
61756;SDS011;57225;61.460;24.060;2023-02-01T00:41:14;20.92;;;4.47;;
61756;SDS011;57225;61.460;24.060;2023-02-01T00:44:00;10.80;;;4.50;;
61756;SDS011;57225;61.460;24.060;2023-02-01T00:46:45;17.92;;;4.18;;
61756;SDS011;57225;61.460;24.060;2023-02-01T00:49:29;12.77;;;3.70;;
61756;SDS011;57225;61.460;24.060;2023-02-01T00:52:14;12.52;;;4.15;;
61756;SDS011;57225;61.460;24.060;2023-02-01T00:54:58;12.45;;;4.13;;
61756;SDS011;57225;61.460;24.060;2023-02-01T00:57:43;9.68;;;3.25;;
61756;SDS011;57225;61.460;24.060;2023-02-01T01:00:27;10.88;;;3.80;;
61756;SDS011;57225;61.460;24.060;2023-02-01T01:03:11;9.45;;;4.00;;
61756;SDS011;57225;61.460;24.060;2023-02-01T01:06:03;10.27;;;3.55;;
61756;SDS011;57225;61.460;24.060;2023-02-01T01:08:51;10.23;;;3.60;;
61756;SDS011;57225;61.460;24.060;2023-02-01T01:11:37;10.82;;;4.00;;
61756;SDS011;57225;61.460;24.060;2023-02-01T01:14:21;13.52;;;4.45;;
61756;SDS011;57225;61.460;24.060;2023-02-01T01:17:05;14.98;;;4.20;;
61756;SDS011;57225;61.460;24.060;2023-02-01T01:19:50;13.73;;;3.75;;
61756;SDS011;57225;61.460;24.060;2023-02-01T01:22:34;11.60;;;4.25;;
61756;SDS011;57225;61.460;24.060;2023-02-01T01:25:19;9.88;;;3.40;;
61756;SDS011;57225;61.460;24.060;2023-02-01T01:28:05;10.07;;;4.07;;
61756;SDS011;57225;61.460;24.060;2023-02-01T01:30:50;13.63;;;3.97;;
61756;SDS011;57225;61.460;24.060;2023-02-01T01:33:34;6.65;;;3.30;;
61756;SDS011;57225;61.460;24.060;2023-02-01T01:36:19;13.32;;;4.32;;
61756;SDS011;57225;61.460;24.060;2023-02-01T01:39:04;9.48;;;3.33;;
61756;SDS011;57225;61.460;24.060;2023-02-01T01:41:49;9.07;;;3.83;;
61756;SDS011;57225;61.460;24.060;2023-02-01T01:47:43;8.20;;;3.42;;
61756;SDS011;57225;61.460;24.060;2023-02-01T01:50:38;11.80;;;3.30;;
61756;SDS011;57225;61.460;24.060;2023-02-01T01:53:27;9.95;;;3.40;;
61756;SDS011;57225;61.460;24.060;2023-02-01T01:56:16;7.78;;;3.55;;
61756;SDS011;57225;61.460;24.060;2023-02-01T01:59:02;9.90;;;2.90;;
61756;SDS011;57225;61.460;24.060;2023-02-01T02:01:48;7.32;;;2.70;;
61756;SDS011;57225;61.460;24.060;2023-02-01T02:04:33;7.50;;;2.67;;
61756;SDS011;57225;61.460;24.060;2023-02-01T02:07:24;8.65;;;2.67;;
61756;SDS011;57225;61.460;24.060;2023-02-01T02:10:12;9.50;;;2.60;;
61756;SDS011;57225;61.460;24.060;2023-02-01T02:12:58;8.55;;;2.63;;
61756;SDS011;57225;61.460;24.060;2023-02-01T02:15:45;12.70;;;3.85;;
61756;SDS011;57225;61.460;24.060;2023-02-01T02:21:52;8.77;;;3.30;;
61756;SDS011;57225;61.460;24.060;2023-02-01T02:28:32;5.75;;;2.85;;
61756;SDS011;57225;61.460;24.060;2023-02-01T02:34:45;9.75;;;3.33;;
61756;SDS011;57225;61.460;24.060;2023-02-01T02:37:41;13.60;;;3.28;;
61756;SDS011;57225;61.460;24.060;2023-02-01T02:41:18;9.15;;;3.13;;
61756;SDS011;57225;61.460;24.060;2023-02-01T02:43:47;7.57;;;2.78;;
61756;SDS011;57225;61.460;24.060;2023-02-01T02:47:00;10.30;;;2.50;;
61756;SDS011;57225;61.460;24.060;2023-02-01T02:50:19;7.03;;;2.50;;
61756;SDS011;57225;61.460;24.060;2023-02-01T02:57:01;17.90;;;7.35;;
61756;SDS011;57225;61.460;24.060;2023-02-01T03:00:09;7.97;;;2.97;;
61756;SDS011;57225;61.460;24.060;2023-02-01T03:03:16;17.92;;;3.08;;
61756;SDS011;57225;61.460;24.060;2023-02-01T03:06:22;7.32;;;3.00;;
61756;SDS011;57225;61.460;24.060;2023-02-01T03:09:08;9.13;;;2.55;;
61756;SDS011;57225;61.460;24.060;2023-02-01T03:11:58;6.70;;;2.30;;
61756;SDS011;57225;61.460;24.060;2023-02-01T03:15:08;5.53;;;2.03;;
61756;SDS011;57225;61.460;24.060;2023-02-01T03:17:56;11.50;;;2.78;;
61756;SDS011;57225;61.460;24.060;2023-02-01T03:20:44;11.70;;;2.58;;
61756;SDS011;57225;61.460;24.060;2023-02-01T03:23:33;8.07;;;3.50;;
61756;SDS011;57225;61.460;24.060;2023-02-01T03:26:20;7.18;;;2.35;;
61756;SDS011;57225;61.460;24.060;2023-02-01T03:29:11;8.95;;;2.75;;
61756;SDS011;57225;61.460;24.060;2023-02-01T03:31:58;7.00;;;3.97;;
61756;SDS011;57225;61.460;24.060;2023-02-01T03:34:43;7.30;;;2.58;;
61756;SDS011;57225;61.460;24.060;2023-02-01T03:37:28;7.85;;;2.85;;
61756;SDS011;57225;61.460;24.060;2023-02-01T03:40:13;8.88;;;2.67;;
61756;SDS011;57225;61.460;24.060;2023-02-01T03:43:00;9.63;;;2.75;;
61756;SDS011;57225;61.460;24.060;2023-02-01T03:45:57;5.55;;;2.80;;
61756;SDS011;57225;61.460;24.060;2023-02-01T03:48:44;8.30;;;2.50;;
61756;SDS011;57225;61.460;24.060;2023-02-01T03:51:28;6.78;;;2.88;;
61756;SDS011;57225;61.460;24.060;2023-02-01T03:54:15;9.93;;;2.75;;
61756;SDS011;57225;61.460;24.060;2023-02-01T03:57:03;11.23;;;3.40;;
61756;SDS011;57225;61.460;24.060;2023-02-01T03:59:55;9.32;;;2.65;;
61756;SDS011;57225;61.460;24.060;2023-02-01T04:02:52;7.65;;;2.45;;
61756;SDS011;57225;61.460;24.060;2023-02-01T04:05:36;6.07;;;2.80;;
61756;SDS011;57225;61.460;24.060;2023-02-01T04:08:21;8.82;;;2.90;;
61756;SDS011;57225;61.460;24.060;2023-02-01T04:11:06;6.28;;;2.90;;
61756;SDS011;57225;61.460;24.060;2023-02-01T04:13:50;9.73;;;2.85;;
61756;SDS011;57225;61.460;24.060;2023-02-01T04:16:35;11.68;;;2.80;;
61756;SDS011;57225;61.460;24.060;2023-02-01T04:19:19;12.98;;;2.90;;
61756;SDS011;57225;61.460;24.060;2023-02-01T04:22:04;9.88;;;2.92;;
61756;SDS011;57225;61.460;24.060;2023-02-01T04:24:48;14.75;;;3.15;;
61756;SDS011;57225;61.460;24.060;2023-02-01T04:27:33;23.52;;;6.90;;
61756;SDS011;57225;61.460;24.060;2023-02-01T04:30:17;16.85;;;5.88;;
61756;SDS011;57225;61.460;24.060;2023-02-01T04:33:02;13.68;;;4.07;;
61756;SDS011;57225;61.460;24.060;2023-02-01T04:35:49;10.43;;;3.05;;
61756;SDS011;57225;61.460;24.060;2023-02-01T04:38:34;8.65;;;3.40;;
61756;SDS011;57225;61.460;24.060;2023-02-01T04:41:19;8.23;;;3.22;;
61756;SDS011;57225;61.460;24.060;2023-02-01T04:44:03;13.27;;;4.35;;
61756;SDS011;57225;61.460;24.060;2023-02-01T04:46:48;13.18;;;4.18;;
61756;SDS011;57225;61.460;24.060;2023-02-01T04:49:32;18.45;;;4.60;;
61756;SDS011;57225;61.460;24.060;2023-02-01T04:52:17;13.57;;;3.97;;
61756;SDS011;57225;61.460;24.060;2023-02-01T04:55:02;21.38;;;5.18;;
61756;SDS011;57225;61.460;24.060;2023-02-01T04:57:47;20.42;;;5.45;;
61756;SDS011;57225;61.460;24.060;2023-02-01T05:00:32;21.25;;;5.13;;
61756;SDS011;57225;61.460;24.060;2023-02-01T05:03:16;24.60;;;5.15;;
61756;SDS011;57225;61.460;24.060;2023-02-01T05:06:01;16.70;;;4.68;;
61756;SDS011;57225;61.460;24.060;2023-02-01T05:08:47;13.48;;;3.90;;
61756;SDS011;57225;61.460;24.060;2023-02-01T05:11:32;15.48;;;4.68;;
61756;SDS011;57225;61.460;24.060;2023-02-01T05:14:35;17.77;;;3.90;;
61756;SDS011;57225;61.460;24.060;2023-02-01T05:17:19;17.88;;;4.20;;
61756;SDS011;57225;61.460;24.060;2023-02-01T05:20:04;15.82;;;4.50;;
61756;SDS011;57225;61.460;24.060;2023-02-01T05:22:49;15.38;;;4.18;;
61756;SDS011;57225;61.460;24.060;2023-02-01T05:25:33;13.05;;;4.07;;
61756;SDS011;57225;61.460;24.060;2023-02-01T05:28:18;16.35;;;3.70;;
61756;SDS011;57225;61.460;24.060;2023-02-01T05:31:08;19.48;;;4.40;;
61756;SDS011;57225;61.460;24.060;2023-02-01T05:33:53;15.60;;;3.33;;
61756;SDS011;57225;61.460;24.060;2023-02-01T05:36:38;14.15;;;4.25;;
61756;SDS011;57225;61.460;24.060;2023-02-01T05:39:22;12.32;;;3.38;;
61756;SDS011;57225;61.460;24.060;2023-02-01T05:42:07;25.58;;;4.38;;
61756;SDS011;57225;61.460;24.060;2023-02-01T05:44:51;18.73;;;3.53;;
61756;SDS011;57225;61.460;24.060;2023-02-01T05:47:36;17.27;;;3.83;;
61756;SDS011;57225;61.460;24.060;2023-02-01T05:50:20;18.80;;;3.47;;
61756;SDS011;57225;61.460;24.060;2023-02-01T05:53:05;16.92;;;3.25;;
61756;SDS011;57225;61.460;24.060;2023-02-01T05:55:49;14.18;;;3.70;;
61756;SDS011;57225;61.460;24.060;2023-02-01T05:58:34;22.65;;;3.72;;
61756;SDS011;57225;61.460;24.060;2023-02-01T06:01:18;17.05;;;3.35;;
61756;SDS011;57225;61.460;24.060;2023-02-01T06:04:03;18.38;;;4.25;;
61756;SDS011;57225;61.460;24.060;2023-02-01T06:06:47;14.20;;;4.40;;
61756;SDS011;57225;61.460;24.060;2023-02-01T06:09:34;19.85;;;4.63;;
61756;SDS011;57225;61.460;24.060;2023-02-01T06:12:19;17.73;;;5.30;;
61756;SDS011;57225;61.460;24.060;2023-02-01T06:15:04;25.08;;;5.57;;
61756;SDS011;57225;61.460;24.060;2023-02-01T06:17:48;18.88;;;6.75;;
61756;SDS011;57225;61.460;24.060;2023-02-01T06:20:33;20.83;;;7.28;;
61756;SDS011;57225;61.460;24.060;2023-02-01T06:23:17;21.38;;;5.22;;
61756;SDS011;57225;61.460;24.060;2023-02-01T06:26:05;15.23;;;4.43;;
61756;SDS011;57225;61.460;24.060;2023-02-01T06:28:53;22.38;;;3.60;;
61756;SDS011;57225;61.460;24.060;2023-02-01T06:31:38;17.15;;;3.50;;
61756;SDS011;57225;61.460;24.060;2023-02-01T06:34:23;10.43;;;3.38;;
61756;SDS011;57225;61.460;24.060;2023-02-01T06:55:57;16.40;;;3.38;;
61756;SDS011;57225;61.460;24.060;2023-02-01T06:58:43;15.30;;;3.63;;
61756;SDS011;57225;61.460;24.060;2023-02-01T07:01:27;13.13;;;3.17;;
61756;SDS011;57225;61.460;24.060;2023-02-01T07:04:12;15.38;;;3.40;;
61756;SDS011;57225;61.460;24.060;2023-02-01T07:06:56;10.73;;;3.40;;
61756;SDS011;57225;61.460;24.060;2023-02-01T07:09:40;16.05;;;3.88;;
61756;SDS011;57225;61.460;24.060;2023-02-01T07:12:25;16.75;;;3.83;;
61756;SDS011;57225;61.460;24.060;2023-02-01T07:15:09;16.00;;;3.63;;
61756;SDS011;57225;61.460;24.060;2023-02-01T07:17:54;18.63;;;3.95;;
61756;SDS011;57225;61.460;24.060;2023-02-01T07:20:41;12.43;;;3.42;;
61756;SDS011;57225;61.460;24.060;2023-02-01T07:23:25;22.13;;;3.63;;
61756;SDS011;57225;61.460;24.060;2023-02-01T07:26:11;21.60;;;3.78;;
61756;SDS011;57225;61.460;24.060;2023-02-01T07:28:57;21.35;;;4.05;;
61756;SDS011;57225;61.460;24.060;2023-02-01T07:31:42;23.27;;;3.92;;
61756;SDS011;57225;61.460;24.060;2023-02-01T07:34:26;17.95;;;4.53;;
61756;SDS011;57225;61.460;24.060;2023-02-01T07:37:10;19.20;;;4.18;;
61756;SDS011;57225;61.460;24.060;2023-02-01T07:39:55;16.75;;;3.78;;
61756;SDS011;57225;61.460;24.060;2023-02-01T07:42:39;16.17;;;4.35;;
61756;SDS011;57225;61.460;24.060;2023-02-01T07:45:24;15.43;;;3.45;;
61756;SDS011;57225;61.460;24.060;2023-02-01T07:48:08;16.90;;;3.75;;
61756;SDS011;57225;61.460;24.060;2023-02-01T07:51:03;18.35;;;3.70;;
61756;SDS011;57225;61.460;24.060;2023-02-01T07:53:49;16.25;;;4.07;;
61756;SDS011;57225;61.460;24.060;2023-02-01T07:56:33;21.90;;;3.83;;
61756;SDS011;57225;61.460;24.060;2023-02-01T07:59:18;17.80;;;3.67;;
61756;SDS011;57225;61.460;24.060;2023-02-01T08:02:03;9.57;;;3.45;;
61756;SDS011;57225;61.460;24.060;2023-02-01T08:04:47;12.60;;;3.33;;
61756;SDS011;57225;61.460;24.060;2023-02-01T08:07:31;21.80;;;3.50;;
61756;SDS011;57225;61.460;24.060;2023-02-01T08:10:16;16.88;;;3.85;;
61756;SDS011;57225;61.460;24.060;2023-02-01T08:13:02;18.65;;;3.58;;
61756;SDS011;57225;61.460;24.060;2023-02-01T08:15:46;16.95;;;3.50;;
61756;SDS011;57225;61.460;24.060;2023-02-01T08:18:31;19.60;;;4.05;;
61756;SDS011;57225;61.460;24.060;2023-02-01T08:21:23;12.55;;;3.88;;
61756;SDS011;57225;61.460;24.060;2023-02-01T08:24:12;18.98;;;4.15;;
61756;SDS011;57225;61.460;24.060;2023-02-01T08:26:56;13.48;;;3.55;;
61756;SDS011;57225;61.460;24.060;2023-02-01T08:29:40;14.30;;;3.22;;
61756;SDS011;57225;61.460;24.060;2023-02-01T08:32:25;15.98;;;3.25;;
61756;SDS011;57225;61.460;24.060;2023-02-01T08:35:09;17.38;;;3.33;;
61756;SDS011;57225;61.460;24.060;2023-02-01T08:37:54;7.68;;;2.45;;
61756;SDS011;57225;61.460;24.060;2023-02-01T08:40:38;13.85;;;3.30;;
61756;SDS011;57225;61.460;24.060;2023-02-01T08:43:25;11.30;;;3.03;;
61756;SDS011;57225;61.460;24.060;2023-02-01T08:46:10;16.88;;;3.85;;
61756;SDS011;57225;61.460;24.060;2023-02-01T08:48:54;10.57;;;2.65;;
61756;SDS011;57225;61.460;24.060;2023-02-01T08:51:39;9.27;;;3.08;;
61756;SDS011;57225;61.460;24.060;2023-02-01T08:54:24;12.30;;;3.33;;
61756;SDS011;57225;61.460;24.060;2023-02-01T08:57:08;16.73;;;3.75;;
61756;SDS011;57225;61.460;24.060;2023-02-01T08:59:53;15.25;;;2.70;;
61756;SDS011;57225;61.460;24.060;2023-02-01T09:02:38;9.98;;;2.58;;
61756;SDS011;57225;61.460;24.060;2023-02-01T09:05:22;10.90;;;2.45;;
61756;SDS011;57225;61.460;24.060;2023-02-01T09:08:10;16.43;;;2.93;;
61756;SDS011;57225;61.460;24.060;2023-02-01T09:11:02;12.50;;;2.50;;
61756;SDS011;57225;61.460;24.060;2023-02-01T09:13:48;7.57;;;2.50;;
61756;SDS011;57225;61.460;24.060;2023-02-01T09:16:32;15.50;;;2.33;;
61756;SDS011;57225;61.460;24.060;2023-02-01T09:19:17;11.73;;;2.40;;
61756;SDS011;57225;61.460;24.060;2023-02-01T09:22:01;10.27;;;2.13;;
61756;SDS011;57225;61.460;24.060;2023-02-01T09:24:45;10.43;;;1.90;;
61756;SDS011;57225;61.460;24.060;2023-02-01T09:27:30;10.32;;;2.45;;
61756;SDS011;57225;61.460;24.060;2023-02-01T09:30:14;12.38;;;2.42;;
61756;SDS011;57225;61.460;24.060;2023-02-01T09:32:59;10.93;;;2.65;;
61756;SDS011;57225;61.460;24.060;2023-02-01T09:35:43;8.43;;;2.63;;
61756;SDS011;57225;61.460;24.060;2023-02-01T09:38:28;8.65;;;2.05;;
61756;SDS011;57225;61.460;24.060;2023-02-01T09:47:18;5.43;;;2.08;;
61756;SDS011;57225;61.460;24.060;2023-02-01T09:50:13;9.48;;;1.90;;
61756;SDS011;57225;61.460;24.060;2023-02-01T09:56:09;6.72;;;1.88;;
61756;SDS011;57225;61.460;24.060;2023-02-01T09:59:10;10.95;;;2.20;;
61756;SDS011;57225;61.460;24.060;2023-02-01T10:02:01;9.70;;;2.33;;
61756;SDS011;57225;61.460;24.060;2023-02-01T10:04:49;7.47;;;2.30;;
61756;SDS011;57225;61.460;24.060;2023-02-01T10:07:36;7.72;;;1.98;;
61756;SDS011;57225;61.460;24.060;2023-02-01T10:10:47;5.88;;;1.50;;
61756;SDS011;57225;61.460;24.060;2023-02-01T10:13:54;6.88;;;1.60;;
61756;SDS011;57225;61.460;24.060;2023-02-01T10:17:12;5.32;;;1.90;;
61756;SDS011;57225;61.460;24.060;2023-02-01T10:25:56;7.93;;;2.00;;
61756;SDS011;57225;61.460;24.060;2023-02-01T10:28:43;9.63;;;2.35;;
61756;SDS011;57225;61.460;24.060;2023-02-01T10:31:34;8.63;;;2.00;;
61756;SDS011;57225;61.460;24.060;2023-02-01T10:34:22;11.40;;;2.17;;
61756;SDS011;57225;61.460;24.060;2023-02-01T10:37:34;9.70;;;1.90;;
61756;SDS011;57225;61.460;24.060;2023-02-01T10:40:19;9.38;;;2.10;;
61756;SDS011;57225;61.460;24.060;2023-02-01T10:43:07;10.60;;;2.13;;
61756;SDS011;57225;61.460;24.060;2023-02-01T10:45:53;6.97;;;2.17;;
61756;SDS011;57225;61.460;24.060;2023-02-01T10:48:37;15.77;;;2.83;;
61756;SDS011;57225;61.460;24.060;2023-02-01T10:51:24;11.02;;;2.60;;
61756;SDS011;57225;61.460;24.060;2023-02-01T10:54:16;6.45;;;1.92;;
61756;SDS011;57225;61.460;24.060;2023-02-01T10:57:09;7.80;;;2.03;;
61756;SDS011;57225;61.460;24.060;2023-02-01T11:00:03;8.52;;;1.88;;
61756;SDS011;57225;61.460;24.060;2023-02-01T11:03:18;10.32;;;2.15;;
61756;SDS011;57225;61.460;24.060;2023-02-01T11:09:32;11.15;;;2.40;;
61756;SDS011;57225;61.460;24.060;2023-02-01T11:12:24;5.43;;;1.95;;
61756;SDS011;57225;61.460;24.060;2023-02-01T11:15:20;5.65;;;2.10;;
61756;SDS011;57225;61.460;24.060;2023-02-01T11:18:39;10.57;;;1.98;;
61756;SDS011;57225;61.460;24.060;2023-02-01T11:21:21;3.95;;;1.70;;
61756;SDS011;57225;61.460;24.060;2023-02-01T11:24:06;8.70;;;1.70;;
61756;SDS011;57225;61.460;24.060;2023-02-01T11:27:05;5.95;;;1.88;;
61756;SDS011;57225;61.460;24.060;2023-02-01T11:29:59;7.88;;;1.90;;
61756;SDS011;57225;61.460;24.060;2023-02-01T11:32:46;6.70;;;1.95;;
61756;SDS011;57225;61.460;24.060;2023-02-01T11:35:32;7.00;;;1.85;;
61756;SDS011;57225;61.460;24.060;2023-02-01T11:38:23;10.02;;;1.75;;
61756;SDS011;57225;61.460;24.060;2023-02-01T11:41:17;8.07;;;2.15;;
61756;SDS011;57225;61.460;24.060;2023-02-01T11:44:15;10.32;;;2.00;;
61756;SDS011;57225;61.460;24.060;2023-02-01T11:50:18;3.22;;;1.63;;
61756;SDS011;57225;61.460;24.060;2023-02-01T11:53:24;6.30;;;1.98;;
61756;SDS011;57225;61.460;24.060;2023-02-01T12:05:27;12.30;;;2.60;;
61756;SDS011;57225;61.460;24.060;2023-02-01T12:17:16;9.80;;;1.80;;
61756;SDS011;57225;61.460;24.060;2023-02-01T12:23:34;6.57;;;1.60;;
61756;SDS011;57225;61.460;24.060;2023-02-01T12:26:44;4.22;;;1.70;;
61756;SDS011;57225;61.460;24.060;2023-02-01T12:32:43;12.32;;;1.80;;
61756;SDS011;57225;61.460;24.060;2023-02-01T12:35:47;6.90;;;1.90;;
61756;SDS011;57225;61.460;24.060;2023-02-01T12:39:02;7.93;;;1.42;;
61756;SDS011;57225;61.460;24.060;2023-02-01T12:45:02;6.30;;;1.85;;
61756;SDS011;57225;61.460;24.060;2023-02-01T12:47:55;7.93;;;1.80;;
61756;SDS011;57225;61.460;24.060;2023-02-01T12:50:45;9.45;;;2.17;;
61756;SDS011;57225;61.460;24.060;2023-02-01T12:56:32;9.35;;;2.28;;
61756;SDS011;57225;61.460;24.060;2023-02-01T12:59:21;6.45;;;1.92;;
61756;SDS011;57225;61.460;24.060;2023-02-01T13:05:28;8.60;;;2.60;;
61756;SDS011;57225;61.460;24.060;2023-02-01T13:08:25;9.70;;;3.05;;
61756;SDS011;57225;61.460;24.060;2023-02-01T13:11:36;10.85;;;2.90;;
61756;SDS011;57225;61.460;24.060;2023-02-01T13:14:28;10.88;;;3.25;;
61756;SDS011;57225;61.460;24.060;2023-02-01T13:17:23;11.77;;;3.30;;
61756;SDS011;57225;61.460;24.060;2023-02-01T13:23:05;16.58;;;3.75;;
61756;SDS011;57225;61.460;24.060;2023-02-01T13:26:03;13.20;;;3.88;;
61756;SDS011;57225;61.460;24.060;2023-02-01T13:28:55;15.32;;;3.63;;
61756;SDS011;57225;61.460;24.060;2023-02-01T13:31:57;12.30;;;4.40;;
61756;SDS011;57225;61.460;24.060;2023-02-01T13:41:40;11.35;;;3.17;;
61756;SDS011;57225;61.460;24.060;2023-02-01T13:44:40;8.65;;;3.50;;
61756;SDS011;57225;61.460;24.060;2023-02-01T13:47:30;14.25;;;3.53;;
61756;SDS011;57225;61.460;24.060;2023-02-01T13:50:37;9.65;;;3.50;;
61756;SDS011;57225;61.460;24.060;2023-02-01T13:53:26;10.70;;;2.90;;
61756;SDS011;57225;61.460;24.060;2023-02-01T13:56:15;11.82;;;3.58;;
61756;SDS011;57225;61.460;24.060;2023-02-01T13:59:03;12.43;;;3.28;;
61756;SDS011;57225;61.460;24.060;2023-02-01T14:02:37;6.32;;;3.60;;
61756;SDS011;57225;61.460;24.060;2023-02-01T14:08:12;12.63;;;3.45;;
61756;SDS011;57225;61.460;24.060;2023-02-01T14:11:05;8.38;;;3.65;;
61756;SDS011;57225;61.460;24.060;2023-02-01T14:13:49;11.23;;;4.03;;
61756;SDS011;57225;61.460;24.060;2023-02-01T14:16:34;16.80;;;4.40;;
61756;SDS011;57225;61.460;24.060;2023-02-01T14:19:26;14.23;;;4.72;;
61756;SDS011;57225;61.460;24.060;2023-02-01T14:25:14;14.30;;;4.68;;
61756;SDS011;57225;61.460;24.060;2023-02-01T14:28:00;16.90;;;4.90;;
61756;SDS011;57225;61.460;24.060;2023-02-01T14:30:47;10.45;;;4.47;;
61756;SDS011;57225;61.460;24.060;2023-02-01T14:33:32;18.25;;;4.80;;
61756;SDS011;57225;61.460;24.060;2023-02-01T14:36:16;13.10;;;4.72;;
61756;SDS011;57225;61.460;24.060;2023-02-01T14:39:01;14.98;;;4.93;;
61756;SDS011;57225;61.460;24.060;2023-02-01T14:41:46;16.25;;;5.72;;
61756;SDS011;57225;61.460;24.060;2023-02-01T14:44:33;14.07;;;5.05;;
61756;SDS011;57225;61.460;24.060;2023-02-01T14:50:16;12.57;;;5.78;;
61756;SDS011;57225;61.460;24.060;2023-02-01T14:53:19;16.88;;;5.18;;
61756;SDS011;57225;61.460;24.060;2023-02-01T14:56:09;18.25;;;6.15;;
61756;SDS011;57225;61.460;24.060;2023-02-01T15:01:54;14.93;;;5.30;;
61756;SDS011;57225;61.460;24.060;2023-02-01T15:04:42;13.65;;;5.35;;
61756;SDS011;57225;61.460;24.060;2023-02-01T15:07:27;16.05;;;5.45;;
61756;SDS011;57225;61.460;24.060;2023-02-01T15:10:16;16.50;;;5.70;;
61756;SDS011;57225;61.460;24.060;2023-02-01T15:13:12;12.38;;;5.20;;
61756;SDS011;57225;61.460;24.060;2023-02-01T15:16:14;18.77;;;7.05;;
61756;SDS011;57225;61.460;24.060;2023-02-01T15:19:06;121.70;;;35.33;;
61756;SDS011;57225;61.460;24.060;2023-02-01T15:21:53;113.85;;;35.53;;
61756;SDS011;57225;61.460;24.060;2023-02-01T15:24:39;96.00;;;34.80;;
61756;SDS011;57225;61.460;24.060;2023-02-01T15:27:24;92.70;;;31.85;;
61756;SDS011;57225;61.460;24.060;2023-02-01T15:30:19;75.40;;;29.58;;
61756;SDS011;57225;61.460;24.060;2023-02-01T15:38:50;22.38;;;7.22;;
61756;SDS011;57225;61.460;24.060;2023-02-01T15:42:09;21.15;;;8.35;;
61756;SDS011;57225;61.460;24.060;2023-02-01T15:44:59;25.40;;;9.07;;
61756;SDS011;57225;61.460;24.060;2023-02-01T15:47:46;31.85;;;8.20;;
61756;SDS011;57225;61.460;24.060;2023-02-01T15:50:32;24.88;;;8.50;;
61756;SDS011;57225;61.460;24.060;2023-02-01T15:53:18;18.17;;;7.38;;
61756;SDS011;57225;61.460;24.060;2023-02-01T15:56:05;24.13;;;8.05;;
61756;SDS011;57225;61.460;24.060;2023-02-01T15:58:50;41.28;;;14.05;;
61756;SDS011;57225;61.460;24.060;2023-02-01T16:04:23;38.00;;;14.63;;
61756;SDS011;57225;61.460;24.060;2023-02-01T16:07:32;39.97;;;14.38;;
61756;SDS011;57225;61.460;24.060;2023-02-01T16:10:20;33.93;;;12.70;;
61756;SDS011;57225;61.460;24.060;2023-02-01T16:13:09;38.28;;;12.80;;
61756;SDS011;57225;61.460;24.060;2023-02-01T16:15:54;49.47;;;16.23;;
61756;SDS011;57225;61.460;24.060;2023-02-01T16:18:39;47.25;;;16.92;;
61756;SDS011;57225;61.460;24.060;2023-02-01T16:21:24;73.75;;;21.55;;
61756;SDS011;57225;61.460;24.060;2023-02-01T16:24:09;58.80;;;21.08;;
61756;SDS011;57225;61.460;24.060;2023-02-01T16:26:53;45.47;;;17.98;;
61756;SDS011;57225;61.460;24.060;2023-02-01T16:29:38;35.22;;;13.40;;
61756;SDS011;57225;61.460;24.060;2023-02-01T16:32:23;32.22;;;11.63;;
61756;SDS011;57225;61.460;24.060;2023-02-01T16:35:21;30.05;;;11.75;;
61756;SDS011;57225;61.460;24.060;2023-02-01T16:38:20;27.80;;;10.20;;
61756;SDS011;57225;61.460;24.060;2023-02-01T16:41:08;25.58;;;9.45;;
61756;SDS011;57225;61.460;24.060;2023-02-01T16:43:56;30.95;;;9.43;;
61756;SDS011;57225;61.460;24.060;2023-02-01T16:46:46;19.67;;;7.32;;
61756;SDS011;57225;61.460;24.060;2023-02-01T16:49:32;29.25;;;9.88;;
61756;SDS011;57225;61.460;24.060;2023-02-01T16:52:26;30.48;;;11.32;;
61756;SDS011;57225;61.460;24.060;2023-02-01T16:55:22;32.05;;;11.75;;
61756;SDS011;57225;61.460;24.060;2023-02-01T16:58:20;30.98;;;11.45;;
61756;SDS011;57225;61.460;24.060;2023-02-01T17:01:23;31.15;;;11.55;;
61756;SDS011;57225;61.460;24.060;2023-02-01T17:04:08;35.53;;;9.50;;
61756;SDS011;57225;61.460;24.060;2023-02-01T17:07:01;33.33;;;9.45;;
61756;SDS011;57225;61.460;24.060;2023-02-01T17:09:52;32.00;;;10.38;;
61756;SDS011;57225;61.460;24.060;2023-02-01T17:12:39;21.05;;;8.77;;
61756;SDS011;57225;61.460;24.060;2023-02-01T17:15:27;27.27;;;9.23;;
61756;SDS011;57225;61.460;24.060;2023-02-01T17:18:17;30.42;;;11.00;;
61756;SDS011;57225;61.460;24.060;2023-02-01T17:21:03;26.35;;;10.32;;
61756;SDS011;57225;61.460;24.060;2023-02-01T17:23:48;26.75;;;10.15;;
61756;SDS011;57225;61.460;24.060;2023-02-01T17:26:33;28.10;;;10.68;;
61756;SDS011;57225;61.460;24.060;2023-02-01T17:29:17;29.50;;;11.20;;
61756;SDS011;57225;61.460;24.060;2023-02-01T17:32:03;25.08;;;10.18;;
61756;SDS011;57225;61.460;24.060;2023-02-01T17:34:48;22.17;;;8.48;;
61756;SDS011;57225;61.460;24.060;2023-02-01T17:37:33;21.10;;;8.15;;
61756;SDS011;57225;61.460;24.060;2023-02-01T17:40:18;19.67;;;8.45;;
61756;SDS011;57225;61.460;24.060;2023-02-01T17:43:03;26.35;;;9.65;;
61756;SDS011;57225;61.460;24.060;2023-02-01T17:45:51;19.98;;;8.15;;
61756;SDS011;57225;61.460;24.060;2023-02-01T17:48:39;20.50;;;7.45;;
61756;SDS011;57225;61.460;24.060;2023-02-01T17:51:25;17.98;;;7.95;;
61756;SDS011;57225;61.460;24.060;2023-02-01T17:54:14;24.75;;;8.60;;
61756;SDS011;57225;61.460;24.060;2023-02-01T17:57:00;20.88;;;9.18;;
61756;SDS011;57225;61.460;24.060;2023-02-01T17:59:46;21.88;;;9.30;;
61756;SDS011;57225;61.460;24.060;2023-02-01T18:08:19;21.67;;;9.25;;
61756;SDS011;57225;61.460;24.060;2023-02-01T18:11:12;18.40;;;8.57;;
61756;SDS011;57225;61.460;24.060;2023-02-01T18:13:59;15.77;;;8.07;;
61756;SDS011;57225;61.460;24.060;2023-02-01T18:16:43;19.50;;;9.35;;
61756;SDS011;57225;61.460;24.060;2023-02-01T18:19:28;20.60;;;8.50;;
61756;SDS011;57225;61.460;24.060;2023-02-01T18:22:16;21.10;;;8.50;;
61756;SDS011;57225;61.460;24.060;2023-02-01T18:25:09;19.60;;;7.65;;
61756;SDS011;57225;61.460;24.060;2023-02-01T18:28:00;21.48;;;7.63;;
61756;SDS011;57225;61.460;24.060;2023-02-01T18:30:45;21.85;;;8.20;;
61756;SDS011;57225;61.460;24.060;2023-02-01T18:33:31;22.10;;;8.45;;
61756;SDS011;57225;61.460;24.060;2023-02-01T18:36:16;22.17;;;7.35;;
61756;SDS011;57225;61.460;24.060;2023-02-01T18:39:00;24.17;;;7.93;;